Time,TemperatureF,DewpointF,PressureIn,WindDirection,WindDirectionDegrees,WindSpeedMPH,WindSpeedGustMPH,Humidity,HourlyPrecipIn,Conditions,Clouds,dailyrainin,SolarRadiationWatts/m^2,SoftwareType,DateUTC
2013-04-22 00:01:00,39.0,39.0,-100.00,ENE,63,0.0,4.0,100,0.00,,,0.00,0.000000,,2013-04-22 07:01:00,
2013-04-22 00:11:00,39.0,39.0,-100.00,ENE,63,0.0,4.0,100,0.00,,,0.00,0.000000,,2013-04-22 07:11:00,
2013-04-22 00:21:00,39.0,39.0,-100.00,ENE,63,0.0,4.0,100,0.00,,,0.00,0.000000,,2013-04-22 07:21:00,
2013-04-22 00:52:00,38.0,38.0,-100.00,WSW,257,0.0,5.0,100,0.00,,,0.00,0.000000,,2013-04-22 07:52:00,
2013-04-22 01:01:00,38.0,38.0,-100.00,WSW,257,0.0,5.0,100,0.00,,,0.00,0.000000,,2013-04-22 08:01:00,
2013-04-22 01:11:00,38.0,38.0,-100.00,WSW,257,0.0,5.0,100,0.00,,,0.00,0.000000,,2013-04-22 08:11:00,
2013-04-22 01:21:00,38.0,38.0,-100.00,WSW,257,0.0,5.0,100,0.00,,,0.00,0.000000,,2013-04-22 08:21:00,
2013-04-22 01:52:00,36.0,36.0,-100.00,NW,321,0.0,4.0,100,0.00,,,0.00,0.000000,,2013-04-22 08:52:00,
2013-04-22 02:01:00,36.0,36.0,-100.00,NW,321,0.0,4.0,100,0.00,,,0.00,0.000000,,2013-04-22 09:01:00,
2013-04-22 02:11:00,36.0,36.0,-100.00,NW,321,0.0,4.0,100,0.00,,,0.00,0.000000,,2013-04-22 09:11:00,
2013-04-22 02:21:00,36.0,36.0,-100.00,NW,321,0.0,4.0,100,0.00,,,0.00,0.000000,,2013-04-22 09:21:00,
2013-04-22 02:52:00,36.0,33.0,-100.00,NNW,345,0.0,5.0,88,0.00,,,0.00,0.000000,,2013-04-22 09:52:00,
2013-04-22 03:03:00,36.0,33.0,-100.00,NNW,345,0.0,5.0,88,0.00,,,0.00,0.000000,,2013-04-22 10:03:00,
2013-04-22 03:12:00,36.0,33.0,-100.00,NNW,345,0.0,5.0,88,0.00,,,0.00,0.000000,,2013-04-22 10:12:00,
2013-04-22 03:22:00,36.0,33.0,-100.00,NNW,345,0.0,5.0,88,0.00,,,0.00,0.000000,,2013-04-22 10:22:00,
2013-04-22 03:52:00,36.0,36.0,-100.00,NNE,33,0.0,4.0,100,0.00,,,0.00,0.000000,,2013-04-22 10:52:00,
2013-04-22 04:02:00,36.0,36.0,-100.00,NNE,33,0.0,4.0,100,0.00,,,0.00,0.000000,,2013-04-22 11:02:00,
2013-04-22 04:12:00,36.0,36.0,-100.00,NNE,33,0.0,4.0,100,0.00,,,0.00,0.000000,,2013-04-22 11:12:00,
2013-04-22 04:22:00,36.0,36.0,-100.00,NNE,33,0.0,4.0,100,0.00,,,0.00,0.000000,,2013-04-22 11:22:00,
2013-04-22 04:52:00,33.0,32.0,-100.00,NNE,12,0.0,4.0,97,0.00,,,0.00,0.000000,,2013-04-22 11:52:00,
2013-04-22 05:01:00,33.0,32.0,-100.00,NNE,12,0.0,4.0,97,0.00,,,0.00,0.000000,,2013-04-22 12:01:00,
2013-04-22 05:12:00,33.0,32.0,-100.00,NNE,12,0.0,4.0,97,0.00,,,0.00,0.000000,,2013-04-22 12:12:00,
2013-04-22 05:21:00,33.0,32.0,-100.00,NNE,12,0.0,4.0,97,0.00,,,0.00,0.000000,,2013-04-22 12:21:00,
2013-04-22 05:52:00,33.0,33.0,-100.00,North,0,2.0,4.0,100,0.00,,,0.00,0.000000,,2013-04-22 12:52:00,
2013-04-22 06:01:00,33.0,33.0,-100.00,North,0,2.0,4.0,100,0.00,,,0.00,0.000000,,2013-04-22 13:01:00,
2013-04-22 06:11:00,33.0,33.0,-100.00,North,0,2.0,4.0,100,0.00,,,0.00,0.000000,,2013-04-22 13:11:00,
2013-04-22 06:22:00,33.0,33.0,-100.00,North,0,2.0,4.0,100,0.00,,,0.00,0.000000,,2013-04-22 13:22:00,
2013-04-22 06:53:00,34.0,34.0,-100.00,North,353,0.0,4.0,100,0.00,,,0.00,4.000000,,2013-04-22 13:53:00,
2013-04-22 07:02:00,34.0,34.0,-100.00,North,353,0.0,4.0,100,0.00,,,0.00,4.000000,,2013-04-22 14:02:00,
2013-04-22 07:11:00,34.0,34.0,-100.00,North,353,0.0,4.0,100,0.00,,,0.00,4.000000,,2013-04-22 14:11:00,
2013-04-22 07:21:00,34.0,34.0,-100.00,North,353,0.0,4.0,100,0.00,,,0.00,4.000000,,2013-04-22 14:21:00,
2013-04-22 07:52:00,40.0,37.0,-100.00,South,174,0.0,3.0,88,0.00,,,-99.99,89.000000,,2013-04-22 14:52:00,
2013-04-22 08:01:00,40.0,37.0,-100.00,South,174,0.0,3.0,88,0.00,,,-99.99,89.000000,,2013-04-22 15:01:00,
2013-04-22 08:53:00,45.0,34.0,-100.00,ESE,119,0.0,3.0,66,0.00,,,0.00,329.000000,,2013-04-22 15:53:00,
2013-04-22 09:02:00,45.0,34.0,-100.00,ESE,119,0.0,3.0,66,0.00,,,0.00,329.000000,,2013-04-22 16:02:00,
2013-04-22 09:12:00,45.0,34.0,-100.00,ESE,119,0.0,3.0,66,0.00,,,0.00,329.000000,,2013-04-22 16:12:00,
2013-04-22 09:23:00,45.0,34.0,-100.00,ESE,119,0.0,3.0,66,0.00,,,0.00,329.000000,,2013-04-22 16:23:00,
2013-04-22 09:52:00,46.0,28.0,-100.00,East,84,2.0,4.0,50,0.00,,,0.00,532.000000,,2013-04-22 16:52:00,
2013-04-22 10:02:00,46.0,28.0,-100.00,East,84,2.0,4.0,50,0.00,,,0.00,532.000000,,2013-04-22 17:02:00,
2013-04-22 10:12:00,46.0,28.0,-100.00,East,84,2.0,4.0,50,0.00,,,0.00,532.000000,,2013-04-22 17:12:00,
2013-04-22 10:22:00,46.0,28.0,-100.00,East,84,2.0,4.0,50,0.00,,,0.00,532.000000,,2013-04-22 17:22:00,
2013-04-22 10:52:00,52.0,32.0,-100.00,ENE,66,2.0,6.0,47,0.00,,,0.00,711.000000,,2013-04-22 17:52:00,
2013-04-22 11:01:00,52.0,32.0,-100.00,ENE,66,2.0,6.0,47,0.00,,,0.00,711.000000,,2013-04-22 18:01:00,
2013-04-22 11:12:00,52.0,32.0,-100.00,ENE,66,2.0,6.0,47,0.00,,,0.00,711.000000,,2013-04-22 18:12:00,
2013-04-22 11:21:00,52.0,32.0,-100.00,ENE,66,2.0,6.0,47,0.00,,,0.00,711.000000,,2013-04-22 18:21:00,
2013-04-22 11:52:00,55.0,27.0,-100.00,ENE,68,4.0,8.0,34,0.00,,,0.00,852.000000,,2013-04-22 18:52:00,
2013-04-22 12:01:00,55.0,27.0,-100.00,ENE,68,4.0,8.0,34,0.00,,,0.00,852.000000,,2013-04-22 19:01:00,
2013-04-22 12:11:00,55.0,27.0,-100.00,ENE,68,4.0,8.0,34,0.00,,,0.00,852.000000,,2013-04-22 19:11:00,
2013-04-22 12:21:00,55.0,27.0,-100.00,ENE,68,4.0,8.0,34,0.00,,,0.00,852.000000,,2013-04-22 19:21:00,
2013-04-22 12:52:00,60.0,14.0,-100.00,ENE,65,4.0,9.0,16,0.00,,,0.00,947.000000,,2013-04-22 19:52:00,
2013-04-22 13:02:00,60.0,14.0,-100.00,ENE,65,4.0,9.0,16,0.00,,,0.00,947.000000,,2013-04-22 20:02:00,
2013-04-22 13:11:00,60.0,14.0,-100.00,ENE,65,4.0,9.0,16,0.00,,,0.00,947.000000,,2013-04-22 20:11:00,
2013-04-22 13:22:00,60.0,14.0,-100.00,ENE,65,4.0,9.0,16,0.00,,,0.00,947.000000,,2013-04-22 20:22:00,
2013-04-22 13:52:00,61.0,13.0,-100.00,ENE,68,3.0,14.0,15,0.00,,,0.00,981.000000,,2013-04-22 20:52:00,
2013-04-22 14:02:00,61.0,13.0,-100.00,ENE,68,3.0,14.0,15,0.00,,,0.00,981.000000,,2013-04-22 21:02:00,
2013-04-22 14:11:00,61.0,13.0,-100.00,ENE,68,3.0,14.0,15,0.00,,,0.00,981.000000,,2013-04-22 21:11:00,
2013-04-22 14:21:00,61.0,13.0,-100.00,ENE,68,3.0,14.0,15,0.00,,,0.00,981.000000,,2013-04-22 21:21:00,
2013-04-22 14:53:00,61.0,13.0,-100.00,ESE,108,4.0,8.0,15,0.00,,,0.00,955.000000,,2013-04-22 21:53:00,
2013-04-22 15:02:00,61.0,13.0,-100.00,ESE,108,4.0,8.0,15,0.00,,,0.00,955.000000,,2013-04-22 22:02:00,
2013-04-22 15:12:00,61.0,13.0,-100.00,ESE,108,4.0,8.0,15,0.00,,,0.00,955.000000,,2013-04-22 22:12:00,
2013-04-22 15:22:00,61.0,13.0,-100.00,ESE,108,4.0,8.0,15,0.00,,,0.00,955.000000,,2013-04-22 22:22:00,
2013-04-22 15:52:00,64.0,10.0,-100.00,South,177,3.0,9.0,12,0.00,,,0.00,873.000000,,2013-04-22 22:52:00,
2013-04-22 16:02:00,64.0,10.0,-100.00,South,177,3.0,9.0,12,0.00,,,0.00,873.000000,,2013-04-22 23:02:00,
2013-04-22 16:11:00,64.0,10.0,-100.00,South,177,3.0,9.0,12,0.00,,,0.00,873.000000,,2013-04-22 23:11:00,
2013-04-22 16:21:00,64.0,10.0,-100.00,South,177,3.0,9.0,12,0.00,,,0.00,873.000000,,2013-04-22 23:21:00,
2013-04-22 16:52:00,66.0,17.0,-100.00,SW,218,6.0,9.0,15,0.00,,,0.00,737.000000,,2013-04-22 23:52:00,
2013-04-22 17:01:00,66.0,17.0,-100.00,SW,218,6.0,9.0,15,0.00,,,0.00,737.000000,,2013-04-23 00:01:00,
2013-04-22 17:12:00,66.0,17.0,-100.00,SW,218,6.0,9.0,15,0.00,,,0.00,737.000000,,2013-04-23 00:12:00,
2013-04-22 17:21:00,66.0,17.0,-100.00,SW,218,6.0,9.0,15,0.00,,,0.00,737.000000,,2013-04-23 00:21:00,
2013-04-22 17:52:00,65.0,11.0,-100.00,SW,227,7.0,10.0,12,0.00,,,0.00,561.000000,,2013-04-23 00:52:00,
2013-04-22 18:01:00,65.0,11.0,-100.00,SW,227,7.0,10.0,12,0.00,,,0.00,561.000000,,2013-04-23 01:01:00,
2013-04-22 18:11:00,65.0,11.0,-100.00,SW,227,7.0,10.0,12,0.00,,,0.00,561.000000,,2013-04-23 01:11:00,
2013-04-22 18:21:00,65.0,11.0,-100.00,SW,227,7.0,10.0,12,0.00,,,0.00,561.000000,,2013-04-23 01:21:00,
2013-04-22 18:52:00,65.0,13.0,-100.00,SW,223,4.0,10.0,13,0.00,,,-99.99,354.000000,,2013-04-23 01:52:00,
2013-04-22 19:01:00,65.0,13.0,-100.00,SW,223,4.0,10.0,13,0.00,,,-99.99,354.000000,,2013-04-23 02:01:00,
2013-04-22 19:12:00,65.0,13.0,-100.00,SW,223,4.0,10.0,13,0.00,,,-99.99,354.000000,,2013-04-23 02:12:00,
2013-04-22 19:21:00,65.0,13.0,-100.00,SW,223,4.0,10.0,13,0.00,,,-99.99,354.000000,,2013-04-23 02:21:00,
2013-04-22 19:52:00,56.0,14.0,-100.00,West,262,1.0,7.0,19,0.00,,,0.00,47.000000,,2013-04-23 02:52:00,
2013-04-22 20:01:00,56.0,14.0,-100.00,West,262,1.0,7.0,19,0.00,,,0.00,47.000000,,2013-04-23 03:01:00,
2013-04-22 20:11:00,56.0,14.0,-100.00,West,262,1.0,7.0,19,0.00,,,0.00,47.000000,,2013-04-23 03:11:00,
2013-04-22 20:21:00,56.0,14.0,-100.00,West,262,1.0,7.0,19,0.00,,,0.00,47.000000,,2013-04-23 03:21:00,
2013-04-22 20:53:00,51.0,12.0,-100.00,SSW,210,0.0,4.0,21,0.00,,,0.00,9.000000,,2013-04-23 03:53:00,
2013-04-22 21:03:00,51.0,12.0,-100.00,SSW,210,0.0,4.0,21,0.00,,,0.00,9.000000,,2013-04-23 04:03:00,
2013-04-22 21:12:00,51.0,12.0,-100.00,SSW,210,0.0,4.0,21,0.00,,,0.00,9.000000,,2013-04-23 04:12:00,
2013-04-22 21:23:00,51.0,12.0,-100.00,SSW,210,0.0,4.0,21,0.00,,,0.00,9.000000,,2013-04-23 04:23:00,
2013-04-22 21:53:00,49.0,20.0,-100.00,SSW,198,0.0,6.0,31,0.00,,,0.00,0.000000,,2013-04-23 04:53:00,
2013-04-22 22:02:00,49.0,20.0,-100.00,SSW,198,0.0,6.0,31,0.00,,,0.00,0.000000,,2013-04-23 05:02:00,
2013-04-22 22:12:00,49.0,20.0,-100.00,SSW,198,0.0,6.0,31,0.00,,,0.00,0.000000,,2013-04-23 05:12:00,
2013-04-22 22:21:00,49.0,20.0,-100.00,SSW,198,0.0,6.0,31,0.00,,,0.00,0.000000,,2013-04-23 05:21:00,
2013-04-22 22:52:00,48.0,22.0,-100.00,South,180,2.0,8.0,36,0.00,,,0.00,0.000000,,2013-04-23 05:52:00,
2013-04-22 23:01:00,48.0,22.0,-100.00,South,180,2.0,8.0,36,0.00,,,0.00,0.000000,,2013-04-23 06:01:00,
2013-04-22 23:12:00,48.0,22.0,-100.00,South,180,2.0,8.0,36,0.00,,,0.00,0.000000,,2013-04-23 06:12:00,
2013-04-22 23:21:00,48.0,22.0,-100.00,South,180,2.0,8.0,36,0.00,,,0.00,0.000000,,2013-04-23 06:21:00,
2013-04-22 23:52:00,44.0,21.0,-100.00,NNE,24,0.0,5.0,39,0.00,,,0.00,0.000000,,2013-04-23 06:52:00,